Flight Track Log - Related Links

Times and Time Zones

All times are in EST time to prevent confusion due to time zone crossing. See the UAL139 flight status page for this flight to view local times or setup timezone preferences in your user account.

Time Position Orientation Groundspeed Altitude Reporting Facility
EST Latitude Longitude Course Direction KTS MPH feet Rate Location/Type
Sun 02:42:17 PM 39.8622 -104.6965 354° North 135 155 5,300  Level FlightAware
Sun 02:42:28 PM 39.8716 -104.6965 360° North 169 194 5,300  Level FlightAware
Sun 02:42:37 PM 39.8740 -104.6964 North 187 215 5,300 632 Level FlightAware (KEIK)
Sun 02:42:47 PM 39.8887 -104.6962 North 208 239 5,500 1,579 Climbing FlightAware
Sun 02:42:56 PM 39.8922 -104.6961 North 207 238 5,800 1,909 Climbing FlightAware (KEIK)
Sun 02:43:09 PM 39.8992 -104.6960 North 214 246 6,200 1,826 Climbing FlightAware
Sun 02:43:19 PM 39.9168 -104.6971 357° North 215 247 6,500 1,846 Climbing FlightAware (KEIK)
Sun 02:43:22 PM 39.9197 -104.6982 344° North 212 244 6,600 1,000 Climbing FlightAware
Sun 02:43:37 PM 39.9336 -104.7144 318° Northwest 234 269 6,800 947 Climbing FlightAware (KEIK)
Sun 02:43:41 PM 39.9341 -104.7158 297° West 232 267 6,900 1,143 Climbing FlightAware
Sun 02:43:58 PM 39.9367 -104.7452 276° West 257 296 7,200 1,421 Climbing FlightAware (KEIK)
Sun 02:44:19 PM 39.9374 -104.7776 272° West 275 316 7,800 2,250 Climbing FlightAware (KEIK)
Sun 02:44:38 PM 39.9383 -104.8064 272° West 281 323 8,700 2,700 Climbing FlightAware (KEIK)
Sun 02:44:59 PM 39.9399 -104.8455 273° West 284 327 9,600 2,264 Climbing FlightAware (KEIK)
Sun 02:45:31 PM 39.9424 -104.8986 273° West 303 349 10,700 1,775 Climbing FlightAware
Sun 02:46:10 PM 39.9462 -104.9779 274° West 336 387 11,700 2,057 Climbing FlightAware
Sun 02:46:41 PM 39.9483 -105.0275 273° West 341 392 13,100 2,852 Climbing FlightAware
Sun 02:47:11 PM 39.9504 -105.0747 273° West 345 397 14,600 2,719 Climbing FlightAware
Sun 02:47:45 PM 39.9544 -105.1736 273° West 351 404 16,000 2,432 Climbing FlightAware (KEIK)
Sun 02:48:25 PM 39.9580 -105.2589 273° West 358 412 17,600 2,278 Climbing FlightAware (KEIK)
Sun 02:49:04 PM 39.9614 -105.3414 273° West 366 421 19,000 2,074 Climbing FlightAware (KEIK)
Sun 02:49:46 PM 39.9651 -105.4373 273° West 374 430 20,400 2,080 Climbing FlightAware (KEIK)
Sun 02:50:19 PM 39.9669 -105.4825 273° West 375 432 21,600 2,100 Climbing FlightAware
Sun 02:51:06 PM 39.9724 -105.6192 273° West 384 442 23,200 1,884 Climbing FlightAware (KEIK)
Sun 02:51:45 PM 39.9755 -105.6983 273° West 391 450 24,300 1,737 Climbing FlightAware (KEIK)
Sun 02:52:22 PM 39.9794 -105.7950 273° West 399 459 25,400 1,629 Climbing FlightAware (KEIK)
Sun 02:52:55 PM 39.9824 -105.8744 273° West 403 464 26,200 1,378 Climbing FlightAware (KEIK)
Sun 02:53:36 PM 39.9860 -105.9695 273° West 413 475 27,100 1,275 Climbing FlightAware (KEIK)
Sun 02:54:15 PM 39.9892 -106.0539 273° West 420 483 27,900 1,397 Climbing FlightAware (KEIK)
Sun 02:54:49 PM 39.9904 -106.0882 273° West 425 489 28,800 1,385 Climbing FlightAware
Sun 02:55:20 PM 39.9956 -106.2357 273° West 426 490 29,400 1,343 Climbing FlightAware
Sun 02:55:56 PM 39.9988 -106.3304 273° West 430 495 30,300 1,315 Climbing FlightAware (KEIK)
Sun 02:56:33 PM 40.0088 -106.4302 277° West 439 505 31,000 1,119 Climbing FlightAware (KEIK)
Sun 02:56:55 PM 40.0173 -106.4531 296° West 447 514 31,400 923 Climbing FlightAware
Sun 02:57:38 PM 40.0885 -106.5526 313° West 455 524 32,000 439 Climbing FlightAware (KEIK)
Sun 02:58:17 PM 40.1508 -106.6328 315° West 455 524 32,000  Level FlightAware (KEIK)
Sun 02:58:59 PM 40.2059 -106.7037 316° Northwest 455 524 32,000  Level FlightAware (KEIK)
Sun 02:59:49 PM 40.2929 -106.8163 315° West 455 524 32,000 138 Level FlightAware (KEIK)
Sun 03:00:26 PM 40.3467 -106.8861 315° West 456 525 32,200 675 Climbing FlightAware (KEIK)
Sun 03:01:09 PM 40.4069 -106.9645 315° West 462 532 32,900 1,157 Climbing FlightAware
Sun 03:01:49 PM 40.4714 -107.0487 315° West 458 527 33,800 504 Climbing FlightAware (KGUC)
Sun 03:03:20 PM 40.6083 -107.2282 315° West 458 527 34,000 75 Climbing FlightAware
Sun 03:04:30 PM 40.6777 -107.3195 315° West 458 527 34,000  Level FlightAware
Sun 03:06:43 PM 40.9039 -107.6193 315° West 459 528 34,000  Level FlightAware
Sun 03:07:47 PM 41.0075 -107.7577 315° West 460 529 34,000  Level FlightAware
Sun 03:08:43 PM 41.0896 -107.8677 315° West 469 540 34,000  Level FlightAware
Sun 03:09:35 PM 41.1594 -107.9647 315° West 459 528 34,000  Level Salt Center
Sun 03:10:36 PM 41.2464 -108.0783 316° Northwest 460 529 34,000 273 Level Salt Center
Sun 03:16:54 PM 41.8139 -108.8578 316° Northwest 457 526 36,000 263 Climbing FlightAware
Sun 03:18:12 PM 41.8992 -108.9768 314° West 457 526 36,000  Level FlightAware
Sun 03:19:23 PM 42.0354 -109.1675 314° West 457 526 36,000  Level FlightAware
Sun 03:20:07 PM 42.0371 -109.1699 314° West 456 525 36,000  Level FlightAware
Sun 03:20:52 PM 42.1583 -109.3433 314° West 457 526 36,000  Level Salt Center
Sun 03:21:54 PM 42.2408 -109.4611 313° West 455 524 36,000  Level Salt Center
Sun 03:22:55 PM 42.3383 -109.6003 313° West 456 525 36,000  Level Salt Center
Sun 03:23:56 PM 42.4217 -109.7186 314° West 456 525 36,000  Level Salt Center
Sun 03:24:58 PM 42.5189 -109.8583 313° West 456 525 36,000  Level Salt Center
Sun 03:26:00 PM 42.6022 -109.9783 313° West 457 526 36,000  Level Salt Center
Sun 03:27:01 PM 42.6844 -110.0989 313° West 456 525 36,000  Level Salt Center
Sun 03:28:03 PM 42.7825 -110.2411 313° West 457 526 36,000  Level Salt Center
Sun 03:29:04 PM 42.8647 -110.3614 313° West 453 521 36,000  Level Salt Center
Sun 03:30:06 PM 42.9619 -110.5033 313° West 457 526 36,000  Level Salt Center
Sun 03:31:07 PM 43.0453 -110.6244 313° West 456 525 36,000  Level Salt Center
Sun 03:32:08 PM 43.1278 -110.7472 313° West 457 526 36,000  Level Salt Center
Sun 03:33:10 PM 43.2242 -110.8897 313° West 458 527 36,000  Level Salt Center
Sun 03:34:11 PM 43.3075 -111.0125 313° West 458 527 36,000  Level Salt Center
Sun 03:35:13 PM 43.4036 -111.1564 313° West 457 526 36,000  Level Salt Center
Sun 03:36:14 PM 43.4844 -111.2781 313° West 452 520 36,000  Level Salt Center
Sun 03:37:16 PM 43.5653 -111.4028 312° West 454 522 36,000  Level Salt Center
Sun 03:38:17 PM 43.6594 -111.5475 312° West 453 521 36,000  Level Salt Center
Sun 03:39:19 PM 43.7422 -111.6700 313° West 455 524 36,000  Level Salt Center
Sun 03:40:20 PM 43.8358 -111.8175 311° West 456 525 36,000  Level Salt Center
Sun 03:41:22 PM 43.9169 -111.9425 312° West 457 526 36,000  Level Salt Center
Sun 03:42:23 PM 43.9981 -112.0681 312° West 455 524 36,000  Level Salt Center
Sun 03:43:25 PM 44.0917 -112.2158 311° West 453 521 36,000  Level Salt Center
Sun 03:44:26 PM 44.1611 -112.3561 305° West 458 527 36,000  Level Salt Center
Sun 03:45:28 PM 44.2425 -112.5211 305° West 462 532 36,000  Level Salt Center
Sun 03:46:29 PM 44.3117 -112.6619 304° West 461 531 36,000  Level Salt Center
Sun 03:47:31 PM 44.3814 -112.8047 304° West 463 533 36,000  Level Salt Center
Sun 03:48:32 PM 44.4608 -112.9706 304° West 460 529 36,000 341 Level Salt Center
Sun 03:49:34 PM 44.5286 -113.1128 304° West 459 528 36,700 732 Climbing Salt Center
Sun 03:50:35 PM 44.6083 -113.2769 304° West 457 526 37,500 634 Climbing Salt Center
Sun 03:51:37 PM 44.6753 -113.4181 304° West 454 522 38,000 244 Climbing Salt Center
Sun 03:52:38 PM 44.7425 -113.5586 304° West 452 520 38,000  Level Salt Center
Sun 03:53:40 PM 44.8211 -113.7225 304° West 453 521 38,000  Level Salt Center
Sun 03:54:41 PM 44.8881 -113.8633 304° West 452 520 38,000  Level Salt Center
Sun 03:55:43 PM 44.9603 -114.0206 303° West 452 520 38,000  Level Salt Center
Sun 03:56:44 PM 45.0286 -114.1678 303° West 450 518 38,000  Level Salt Center
Sun 03:57:46 PM 45.0972 -114.3175 303° West 454 522 38,000  Level Salt Center
Sun 03:58:47 PM 45.1661 -114.4664 303° West 455 524 38,000  Level Salt Center
Sun 03:59:48 PM 45.2344 -114.6156 303° West 454 522 38,000  Level Salt Center
Sun 04:00:50 PM 45.3175 -114.7950 303° West 455 524 38,000  Level Salt Center
Sun 04:01:51 PM 45.3853 -114.9472 302° West 458 527 38,000  Level Salt Center
Sun 04:02:53 PM 45.4531 -115.0964 303° West 454 522 38,000  Level Salt Center
Sun 04:03:48 PM 45.5069 -115.2194 302° West 456 525 38,000  Level Seattle Center
Sun 04:04:49 PM 45.5892 -115.4000 303° West 455 524 38,000  Level Seattle Center
Sun 04:05:50 PM 45.6519 -115.5433 302° West 456 525 38,000 -49 Level Seattle Center
Sun 04:06:51 PM 45.7192 -115.6969 302° West 456 525 37,900  Descending Seattle Center
Sun 04:07:52 PM 45.7858 -115.8508 302° West 456 525 38,000  Climbing Seattle Center
Sun 04:08:53 PM 45.8525 -116.0022 302° West 453 521 37,900  Descending Seattle Center
Sun 04:09:53 PM 45.9192 -116.1558 302° West 455 524 38,000 50 Climbing Seattle Center
Sun 04:10:54 PM 45.9858 -116.3083 302° West 453 521 38,000  Level Seattle Center
Sun 04:11:55 PM 46.0531 -116.4644 302° West 459 528 38,000  Level Seattle Center
Sun 04:12:56 PM 46.1183 -116.6186 301° West 454 522 38,000 -49 Level Seattle Center
Sun 04:13:57 PM 46.1839 -116.7731 302° West 454 522 37,900  Descending Seattle Center
Sun 04:14:58 PM 46.2511 -116.9358 301° West 459 528 38,000  Climbing Seattle Center
Sun 04:15:59 PM 46.3169 -117.0903 302° West 461 531 37,900 -50 Descending Seattle Center
Sun 04:16:59 PM 46.3819 -117.2456 301° West 456 525 37,900  Level Seattle Center
Sun 04:18:00 PM 46.4594 -117.4336 301° West 454 522 37,900 49 Level Seattle Center
Sun 04:19:01 PM 46.5253 -117.5928 301° West 456 525 38,000 49 Climbing Seattle Center
Sun 04:20:02 PM 46.5886 -117.7497 300° West 453 521 38,000  Level Seattle Center
Sun 04:21:03 PM 46.6542 -117.9094 301° West 456 525 38,000  Level Seattle Center
Sun 04:22:04 PM 46.7183 -118.0683 301° West 455 524 38,000  Level Seattle Center
Sun 04:27:36 PM 47.0734 -118.9620 301° West 455 524 38,000  Level FlightAware
Sun 04:28:07 PM 47.1052 -119.0440 300° West 453 521 38,000  Level FlightAware
Sun 04:28:37 PM 47.1367 -119.1250 300° West 453 521 38,000  Level FlightAware
Sun 04:29:07 PM 47.1676 -119.2050 300° West 452 520 38,000  Level FlightAware
Sun 04:29:33 PM 47.1939 -119.2720 300° West 451 519 38,000  Level FlightAware
Sun 04:30:03 PM 47.2287 -119.3500 303° West 450 518 38,000  Level FlightAware
Sun 04:30:34 PM 47.2676 -119.4250 307° West 453 521 38,000  Level FlightAware
Sun 04:31:04 PM 47.3060 -119.4990 307° West 455 524 38,000  Level FlightAware
Sun 04:31:37 PM 47.3466 -119.5780 307° West 454 522 38,000  Level FlightAware
Sun 04:32:07 PM 47.3854 -119.6530 307° West 453 521 38,000  Level FlightAware
Sun 04:32:39 PM 47.4256 -119.7310 307° West 453 521 38,000  Level FlightAware
Sun 04:33:09 PM 47.4641 -119.8060 307° West 455 524 38,000  Level FlightAware
Sun 04:33:40 PM 47.5030 -119.8820 307° West 460 529 38,000  Level FlightAware
Sun 04:34:10 PM 47.5419 -119.9580 307° West 461 531 38,000  Level FlightAware
Sun 04:34:40 PM 47.5804 -120.0340 307° West 461 531 38,000  Level FlightAware
Sun 04:35:10 PM 47.6187 -120.1090 307° West 460 529 38,000  Level FlightAware
Sun 04:35:40 PM 47.6571 -120.1850 307° West 458 527 38,000  Level FlightAware
Sun 04:35:44 PM 47.6619 -120.1945 307° West 458 527 38,000  Level FlightAware
Sun 04:36:11 PM 47.6951 -120.2600 307° West 458 527 38,000  Level FlightAware
Sun 04:36:21 PM 47.7085 -120.2869 307° West 458 527 38,000  Level FlightAware
Sun 04:36:41 PM 47.7333 -120.3360 307° West 458 527 38,000  Level FlightAware
Sun 04:36:53 PM 47.7416 -120.3528 306° West 458 527 38,000  Level FlightAware
Sun 04:37:11 PM 47.7715 -120.4120 307° West 459 528 38,000  Level FlightAware
Sun 04:37:27 PM 47.7920 -120.4531 307° West 460 529 38,000  Level FlightAware
Sun 04:37:41 PM 47.8103 -120.4900 306° West 461 531 38,000  Level FlightAware
Sun 04:38:12 PM 47.8485 -120.5660 307° West 464 534 38,000  Level FlightAware
Sun 04:38:42 PM 47.8873 -120.6440 307° West 466 536 38,000  Level FlightAware
Sun 04:38:46 PM 47.8932 -120.6561 306° West 466 536 38,000  Level FlightAware
Sun 04:39:12 PM 47.9257 -120.7220 306° West 466 536 38,000  Level FlightAware
Sun 04:39:42 PM 47.9639 -120.7990 307° West 463 533 38,000  Level FlightAware
Sun 04:40:00 PM 47.9872 -120.8458 307° West 463 533 38,000  Level FlightAware
Sun 04:40:12 PM 48.0024 -120.8770 306° West 462 532 38,000  Level FlightAware
Sun 04:40:44 PM 48.0420 -120.9570 307° West 460 529 38,000  Level FlightAware
Sun 04:40:51 PM 48.0473 -120.9676 306° West 459 528 38,000  Level FlightAware
Sun 04:41:14 PM 48.0798 -121.0340 306° West 457 526 38,000  Level FlightAware
Sun 04:41:26 PM 48.0952 -121.0654 306° West 452 520 38,000  Level FlightAware
Sun 04:41:44 PM 48.1176 -121.1110 306° West 455 524 38,000  Level FlightAware
Sun 04:42:14 PM 48.1548 -121.1870 306° West 457 526 38,000  Level FlightAware
Sun 04:42:16 PM 48.1568 -121.1915 304° West 452 520 38,000  Level FlightAware
Sun 04:42:44 PM 48.1921 -121.2640 306° West 454 522 38,000  Level FlightAware
Sun 04:42:54 PM 48.2043 -121.2890 306° West 449 517 38,000  Level FlightAware
Sun 04:43:16 PM 48.2304 -121.3430 306° West 454 522 38,000  Level FlightAware
Sun 04:43:28 PM 48.2454 -121.3738 306° West 450 518 38,000  Level FlightAware
Sun 04:43:46 PM 48.2675 -121.4200 306° West 454 522 38,000  Level FlightAware
Sun 04:44:07 PM 48.2944 -121.4753 306° West 450 518 38,000  Level FlightAware
Sun 04:44:16 PM 48.3045 -121.4960 306° West 455 524 38,000  Level FlightAware
Sun 04:44:42 PM 48.3365 -121.5626 306° West 451 519 38,000  Level FlightAware
Sun 04:44:46 PM 48.3414 -121.5730 306° West 455 524 38,000  Level FlightAware
Sun 04:45:01 PM 48.3604 -121.6122 306° West 450 518 38,000  Level FlightAware
Sun 04:45:16 PM 48.3783 -121.6500 306° West 456 525 38,000  Level FlightAware
Sun 04:45:46 PM 48.4150 -121.7260 306° West 454 522 38,000  Level FlightAware
Sun 04:45:49 PM 48.4194 -121.7357 305° West 454 522 38,000  Level FlightAware
Sun 04:46:16 PM 48.4522 -121.8040 306° West 454 522 38,000  Level FlightAware
Sun 04:46:26 PM 48.4642 -121.8296 305° West 455 524 38,000  Level FlightAware (FAKM / KIM)
Sun 04:46:46 PM 48.4889 -121.8810 306° West 456 525 38,000  Level FlightAware
Sun 04:47:08 PM 48.5126 -121.9315 305° West 456 525 38,000  Level FlightAware (FAKM / KIM)
Sun 04:47:16 PM 48.5258 -121.9590 306° West 456 525 38,000  Level FlightAware
Sun 04:47:42 PM 48.5559 -122.0230 305° West 456 525 38,000  Level FlightAware (FAKM / KIM)
Sun 04:47:47 PM 48.5635 -122.0390 306° West 457 526 38,000  Level FlightAware
Sun 04:48:17 PM 48.6001 -122.1170 305° West 456 525 38,000  Level FlightAware
Sun 04:48:18 PM 48.6018 -122.1203 308° West 456 525 38,000  Level FlightAware
Sun 04:48:48 PM 48.6371 -122.1950 306° West 455 524 38,000  Level FlightAware
Sun 04:48:55 PM 48.6454 -122.2130 305° West 455 524 38,000  Level FlightAware (FAKM / KIM)
Sun 04:49:18 PM 48.6738 -122.2730 306° West 453 521 38,000  Level FlightAware
Sun 04:49:30 PM 48.6888 -122.3055 305° West 453 521 38,000  Level FlightAware (FAKM / KIM)
Sun 04:49:48 PM 48.7105 -122.3520 305° West 453 521 38,000  Level FlightAware
Sun 04:50:01 PM 48.7211 -122.3747 305° West 453 521 38,000  Level FlightAware (FAKM / KIM)
Sun 04:50:19 PM 48.7471 -122.4300 305° West 452 520 38,000  Level FlightAware
Sun 04:50:47 PM 48.7750 -122.4904 305° West 453 521 38,000  Level FlightAware
Sun 04:50:56 PM 48.7928 -122.5290 305° West 453 521 38,000  Level FlightAware
Sun 04:51:21 PM 48.8210 -122.5896 305° West 454 522 38,000  Level FlightAware (FAKM / KIM)
Sun 04:51:36 PM 48.8402 -122.6310 305° West 454 522 38,000  Level FlightAware
Sun 04:51:51 PM 48.8578 -122.6694 305° West 455 524 38,000  Level FlightAware
Sun 04:52:23 PM 48.8971 -122.7550 305° West 455 524 38,000  Level FlightAware
Sun 04:52:24 PM 48.8976 -122.7556 322° Northwest 456 525 38,000  Level FlightAware (FAKM / KIM)
Sun 04:52:54 PM 48.9340 -122.8350 305° West 457 526 38,000  Level FlightAware
Sun 04:53:00 PM 48.9421 -122.8528 305° West 457 526 38,000  Level FlightAware
Sun 04:53:33 PM 48.9815 -122.9390 305° West 458 527 38,000  Level FlightAware
Sun 04:54:06 PM 49.0218 -123.0270 305° West 459 528 38,000  Level FlightAware
Sun 04:54:07 PM 49.0210 -123.0256 129° Southeast 459 528 38,000  Level FlightAware (FAKM / KIM)
Sun 04:54:37 PM 49.0580 -123.1070 305° West 459 528 38,000  Level FlightAware
Sun 04:54:42 PM 49.0650 -123.1221 305° West 459 528 38,000  Level FlightAware
Sun 04:55:04 PM 49.0906 -123.1790 305° West 460 529 38,000  Level FlightAware
Sun 04:55:17 PM 49.1039 -123.2109 302° West 462 532 38,000  Level FlightAware (FAKM / KIM)
Sun 04:55:34 PM 49.1247 -123.2620 302° West 462 532 38,000  Level FlightAware
Sun 04:55:47 PM 49.1382 -123.2963 301° West 462 532 38,000  Level FlightAware
Sun 04:56:21 PM 49.1752 -123.3883 302° West 461 531 38,000  Level FlightAware (FAKM / KIM)
Sun 04:56:52 PM 49.2113 -123.4771 302° West 460 529 38,000  Level FlightAware (FAKM / KIM)
Sun 04:56:55 PM 49.2158 -123.4880 303° West 462 532 38,000  Level FlightAware
Sun 04:57:24 PM 49.2457 -123.5614 302° West 461 531 38,000  Level FlightAware (FAKM / KIM)
Sun 04:57:26 PM 49.2499 -123.5720 301° West 461 531 38,000  Level FlightAware
Sun 04:57:55 PM 49.2809 -123.6482 302° West 461 531 38,000  Level FlightAware (FAKM / KIM)
Sun 04:57:56 PM 49.2839 -123.6550 304° West 461 531 38,000  Level FlightAware
Sun 04:58:26 PM 49.3177 -123.7390 302° West 460 529 38,000  Level FlightAware
Sun 04:58:39 PM 49.3311 -123.7720 302° West 460 529 38,000  Level FlightAware
Sun 04:58:56 PM 49.3514 -123.8220 302° West 459 528 38,000  Level FlightAware
Sun 04:59:12 PM 49.3652 -123.8565 302° West 459 528 38,000  Level FlightAware (FAKM / KIM)
Sun 04:59:43 PM 49.4001 -123.9434 302° West 459 528 38,000  Level FlightAware
Sun 05:00:19 PM 49.4397 -124.0424 302° West 457 526 38,000  Level FlightAware (FAKM / KIM)
Sun 05:00:49 PM 49.4735 -124.1273 302° West 456 525 38,000  Level FlightAware (FAKM / KIM)
Sun 05:01:27 PM 49.5170 -124.2367 301° West 458 527 38,000  Level FlightAware
Sun 05:01:36 PM 49.5271 -124.2620 302° West 458 527 38,000  Level FlightAware
Sun 05:02:06 PM 49.5606 -124.3470 301° West 457 526 38,000  Level FlightAware
Sun 05:02:10 PM 49.5639 -124.3556 301° West 457 526 38,000  Level FlightAware (FAKM / KIM)
Sun 05:02:41 PM 49.5846 -124.4083 301° West 457 526 38,000  Level FlightAware (FAKM / KIM)
Sun 05:02:44 PM 49.6014 -124.4510 301° West 457 526 38,000  Level FlightAware
Sun 05:03:11 PM 49.6282 -124.5193 301° West 456 525 38,000  Level FlightAware (FAKM / KIM)
Sun 05:03:17 PM 49.6372 -124.5420 301° West 456 525 38,000  Level FlightAware
Sun 05:03:45 PM 49.6673 -124.6192 301° West 456 525 38,000  Level FlightAware (FAKM / KIM)
Sun 05:04:15 PM 49.6998 -124.7026 301° West 456 525 38,000  Level FlightAware (FAKM / KIM)
Sun 05:04:47 PM 49.7279 -124.7750 301° West 456 525 38,000  Level FlightAware (FAKM / KIM)
Sun 05:05:17 PM 49.7668 -124.8753 301° West 457 526 38,000  Level FlightAware (FAKM / KIM)
Sun 05:05:59 PM 49.8112 -124.9906 301° West 457 526 38,000  Level FlightAware (FAKM / KIM)
Sun 05:06:30 PM 49.8446 -125.0776 301° West 458 527 38,000  Level FlightAware (FAKM / KIM)
Sun 05:07:00 PM 49.8782 -125.1654 301° West 458 527 38,000  Level FlightAware (FAKM / KIM)
Sun 05:07:40 PM 49.9209 -125.2774 301° West 458 527 38,000  Level FlightAware (FAKM / KIM)
Sun 05:08:14 PM 49.9567 -125.3716 301° West 457 526 38,000  Level FlightAware (FAKM / KIM)
Sun 05:08:57 PM 50.0031 -125.4942 301° West 457 526 38,000  Level FlightAware (FAKM / KIM)
Sun 05:09:41 PM 50.0488 -125.6154 300° West 457 526 38,000  Level FlightAware (FAKM / KIM)
Sun 05:10:26 PM 50.0984 -125.7482 300° West 458 527 38,000  Level FlightAware (FAKM / KIM)
Sun 05:11:22 PM 50.1333 -125.9167 300° West 460 529 38,000  Level Vancouver Center
Sun 05:12:22 PM 50.2000 -126.1000 300° West 460 529 38,000  Level Vancouver Center
Sun 05:13:22 PM 50.2667 -126.2500 305° West 450 518 38,000  Level Vancouver Center
Sun 05:14:22 PM 50.3333 -126.4167 302° West 450 518 38,000  Level Vancouver Center
Sun 05:15:22 PM 50.3833 -126.6000 293° West 460 529 38,000 150 Level Vancouver Center
Sun 05:16:22 PM 50.4500 -126.7667 302° West 460 529 38,300 500 Climbing Vancouver Center
Sun 05:17:22 PM 50.5167 -126.9500 300° West 450 518 39,000 350 Climbing Vancouver Center
Sun 05:18:22 PM 50.5833 -127.1167 302° West 450 518 39,000  Level Vancouver Center
Sun 05:19:22 PM 50.6333 -127.2667 298° West 450 518 39,000  Level Vancouver Center
Sun 05:20:22 PM 50.7000 -127.4333 302° West 450 518 39,000  Level Vancouver Center
Sun 05:21:22 PM 50.8000 -127.5833 317° Northwest 440 506 39,000  Level Vancouver Center
Sun 05:22:22 PM 50.8667 -127.7333 305° West 440 506 39,000  Level Vancouver Center
Sun 05:23:22 PM 50.9333 -127.8833 305° West 440 506 39,000  Level Vancouver Center
Sun 05:24:22 PM 51.0167 -128.0500 309° West 440 506 39,000  Level Vancouver Center
Sun 05:25:22 PM 51.1167 -128.1833 320° Northwest 440 506 39,000  Level Vancouver Center
Sun 05:26:22 PM 51.1833 -128.3333 305° West 440 506 39,000  Level Vancouver Center
Sun 05:27:22 PM 51.2667 -128.5000 309° West 450 518 39,000  Level Vancouver Center
Sun 05:28:22 PM 51.3500 -128.6333 315° West 440 506 39,000  Level Vancouver Center
Sun 05:29:22 PM 51.4167 -128.8000 303° West 440 506 39,000  Level Vancouver Center
Sun 05:30:22 PM 51.5000 -128.9500 312° West 450 518 39,000  Level Vancouver Center
Sun 05:31:22 PM 51.5667 -129.1000 306° West 450 518 39,000  Level Vancouver Center
Sun 05:32:22 PM 51.6500 -129.2667 309° West 450 518 39,000  Level Vancouver Center
Sun 05:33:22 PM 51.7333 -129.4000 315° West 450 518 39,000  Level Vancouver Center
Sun 05:34:22 PM 51.8167 -129.5833 306° West 450 518 39,000  Level Vancouver Center
Sun 05:35:22 PM 51.9000 -129.7333 312° West 450 518 39,000  Level Vancouver Center
Sun 05:36:22 PM 51.9667 -129.8667 309° West 450 518 39,000  Level Vancouver Center
Sun 05:37:22 PM 52.0500 -130.0500 307° West 450 518 39,000  Level Vancouver Center
Sun 05:38:22 PM 52.1167 -130.2000 306° West 450 518 39,000  Level Vancouver Center
Sun 05:39:22 PM 52.2167 -130.3667 314° West 450 518 39,000  Level Vancouver Center
Sun 05:40:22 PM 52.2833 -130.5167 306° West 450 518 39,000  Level Vancouver Center
Sun 05:41:22 PM 52.3667 -130.7000 307° West 450 518 39,000  Level Vancouver Center
Sun 05:42:22 PM 52.4333 -130.8500 306° West 450 518 39,000  Level Vancouver Center
Sun 05:43:22 PM 52.5167 -131.0167 309° West 450 518 39,000  Level Vancouver Center
Sun 05:44:22 PM 52.5833 -131.1667 306° West 450 518 39,000  Level Vancouver Center
Sun 05:45:22 PM 52.6667 -131.3167 313° West 450 518 39,000  Level Vancouver Center
Sun 05:46:22 PM 52.7333 -131.5000 301° West 450 518 39,000  Level Vancouver Center
Sun 05:47:22 PM 52.8000 -131.6500 306° West 440 506 39,000  Level Vancouver Center
Sun 05:48:22 PM 52.9000 -131.8333 312° West 450 518 39,000  Level Vancouver Center
Sun 05:49:22 PM 52.9667 -131.9833 306° West 450 518 39,000  Level Vancouver Center
Sun 05:50:22 PM 53.0500 -132.1333 313° West 440 506 39,000  Level Vancouver Center
Sun 05:51:21 PM 53.1167 -132.3000 304° West 440 506 39,000  Level Vancouver Center
Sun 05:52:21 PM 53.1833 -132.4667 304° West 440 506 39,000  Level Vancouver Center
Sun 05:53:21 PM 53.2667 -132.6333 310° West 440 506 39,000  Level Vancouver Center
Sun 05:54:21 PM 53.3333 -132.8167 301° West 440 506 39,000  Level Vancouver Center
Sun 05:55:21 PM 53.4000 -132.9667 307° West 440 506 39,000  Level Vancouver Center
Sun 05:56:21 PM 53.4667 -133.1500 301° West 450 518 39,000  Level Vancouver Center
Sun 05:57:21 PM 53.5500 -133.3167 310° West 450 518 39,000  Level Vancouver Center
Sun 05:58:21 PM 53.6333 -133.5000 308° West 440 506 39,000  Level Vancouver Center
Sun 05:59:21 PM 53.7000 -133.6500 307° West 450 518 39,000  Level Vancouver Center
Sun 06:00:21 PM 53.7500 -133.8167 297° West 450 518 39,000  Level Vancouver Center
Sun 06:01:21 PM 53.8333 -134.0000 308° West 440 506 39,000  Level Vancouver Center
Sun 06:02:21 PM 53.9167 -134.1667 310° West 450 518 39,000  Level Vancouver Center
Sun 06:03:21 PM 53.9833 -134.3500 302° West 450 518 39,000  Level Vancouver Center
Sun 06:04:21 PM 54.0500 -134.5167 304° West 450 518 39,000  Level Vancouver Center
Sun 06:05:21 PM 54.1167 -134.6667 307° West 450 518 39,000  Level Vancouver Center
Sun 06:06:21 PM 54.1833 -134.8667 300° West 450 518 39,000  Level Vancouver Center
Sun 06:07:21 PM 54.2500 -135.0167 307° West 440 506 39,000  Level Vancouver Center
Sun 06:08:21 PM 54.3167 -135.2167 300° West 440 506 39,000  Level Vancouver Center
Sun 06:09:24 PM 54.4000 -135.3333 321° Northwest 440 506 39,000  Level Anchorage Center
Sun 06:10:24 PM 54.4667 -135.5000 305° West 440 506 39,000  Level Anchorage Center
Sun 06:11:21 PM 54.5167 -135.7333 290° West 440 506 39,000  Level Vancouver Center
Sun 06:12:21 PM 54.5833 -135.9000 305° West 450 518 39,000  Level Vancouver Center
Sun 06:13:25 PM 54.6667 -136.0500 314° West 450 518 39,000  Level Anchorage Center
Sun 06:14:21 PM 54.7000 -136.2833 284° West 450 518 39,000  Level Vancouver Center
Sun 06:15:21 PM 54.7833 -136.4833 306° West 450 518 39,000  Level Vancouver Center
Sun 06:16:21 PM 54.8333 -136.6500 298° West 450 518 39,000  Level Vancouver Center
Sun 06:17:21 PM 54.9167 -136.8500 306° West 450 518 39,000  Level Vancouver Center
Sun 06:18:21 PM 54.9667 -136.9833 303° West 450 518 39,000  Level Vancouver Center
Sun 06:19:27 PM 55.0500 -137.1500 311° West 450 518 39,000  Level Anchorage Center
Sun 06:20:28 PM 55.1167 -137.3333 303° West 450 518 39,000  Level Anchorage Center
Sun 06:21:27 PM 55.1833 -137.5333 300° West 450 518 39,000  Level Anchorage Center
Sun 06:22:28 PM 55.2500 -137.7167 303° West 450 518 39,000  Level Anchorage Center
Sun 06:23:28 PM 55.3167 -137.9000 303° West 450 518 39,000  Level Anchorage Center
Sun 06:24:29 PM 55.3833 -138.1000 300° West 450 518 39,000 50 Level Anchorage Center
Sun 06:25:29 PM 55.4500 -138.2833 303° West 450 518 39,100 321 Climbing Anchorage Center
Sun 06:26:21 PM 55.4833 -138.5333 283° West 450 518 39,600 482 Climbing Vancouver Center
Sun 06:27:21 PM 55.5500 -138.7000 305° West 450 518 40,000 200 Climbing Vancouver Center
Sun 06:28:21 PM 55.6167 -138.9000 301° West 450 518 40,000  Level Vancouver Center
Sun 06:29:21 PM 55.6833 -139.0833 303° West 450 518 40,000  Level Vancouver Center
Sun 06:30:21 PM 55.7333 -139.2833 294° West 450 518 40,000  Level Vancouver Center
Sun 06:31:21 PM 55.8000 -139.4833 301° West 450 518 40,000  Level Vancouver Center
Sun 06:32:21 PM 55.8500 -139.6667 296° West 460 529 40,000  Level Vancouver Center
Sun 06:33:21 PM 55.9167 -139.8667 301° West 460 529 40,000  Level Vancouver Center
Sun 06:34:21 PM 55.9667 -140.0667 294° West 450 518 40,000  Level Vancouver Center
Sun 06:35:21 PM 56.0333 -140.2833 299° West 450 518 40,000  Level Vancouver Center
Sun 06:36:21 PM 56.0833 -140.4833 294° West 450 518 40,000  Level Vancouver Center
Sun 06:37:21 PM 56.1333 -140.6833 294° West 450 518 40,000  Level Vancouver Center
Sun 06:38:33 PM 56.2000 -140.8333 309° West 440 506 40,000  Level Anchorage Center
Sun 06:39:34 PM 56.2333 -141.0000 290° West 420 483 40,000  Level Anchorage Center
Sun 06:40:34 PM 56.3000 -141.2500 296° West 450 518 40,000  Level Anchorage Center
Sun 06:41:34 PM 56.3500 -141.4500 294° West 450 518 40,000  Level Anchorage Center
Sun 06:42:35 PM 56.4000 -141.6667 293° West 450 518 40,000  Level Anchorage Center
Sun 06:43:35 PM 56.4500 -141.8667 294° West 450 518 40,000  Level Anchorage Center
Sun 06:44:35 PM 56.5000 -142.0833 293° West 440 506 40,000  Level Anchorage Center
Sun 06:45:36 PM 56.5500 -142.3000 293° West 450 518 40,000  Level Anchorage Center
Sun 06:46:36 PM 56.5833 -142.5000 287° West 450 518 40,000  Level Anchorage Center
Sun 06:47:36 PM 56.6333 -142.7167 293° West 450 518 40,000  Level Anchorage Center
Sun 06:48:37 PM 56.6833 -142.9167 295° West 440 506 40,000  Level Anchorage Center
Sun 06:49:37 PM 56.7333 -143.1333 293° West 440 506 40,000  Level Anchorage Center
Sun 06:50:37 PM 56.7833 -143.3333 295° West 440 506 40,000  Level Anchorage Center
Sun 06:51:37 PM 56.8167 -143.5667 285° West 460 529 40,000  Level Anchorage Center
Sun 06:52:38 PM 56.8667 -143.7667 295° West 440 506 40,000  Level Anchorage Center
Sun 06:53:38 PM 56.9167 -143.9833 293° West 440 506 40,000  Level Anchorage Center
Sun 06:54:38 PM 56.9500 -144.2000 286° West 440 506 40,000  Level Anchorage Center
Sun 06:55:39 PM 57.0000 -144.4000 295° West 440 506 40,000  Level Anchorage Center
Sun 06:56:39 PM 57.0333 -144.6167 286° West 440 506 40,000  Level Anchorage Center
Sun 06:57:39 PM 57.0833 -144.8333 293° West 440 506 40,000  Level Anchorage Center
Sun 06:58:40 PM 57.1333 -145.0500 293° West 440 506 40,000  Level Anchorage Center
Sun 06:59:40 PM 57.1667 -145.2667 286° West 440 506 40,000  Level Anchorage Center
Sun 07:00:41 PM 57.2167 -145.4667 295° West 440 506 40,000  Level Anchorage Center
Sun 07:01:41 PM 57.2500 -145.7000 285° West 440 506 40,000  Level Anchorage Center
Sun 07:02:41 PM 57.3000 -145.9167 293° West 450 518 40,000  Level Anchorage Center
Sun 07:03:41 PM 57.3333 -146.1333 286° West 440 506 40,000  Level Anchorage Center
Sun 07:04:42 PM 57.3833 -146.3500 293° West 440 506 40,000  Level Anchorage Center
Sun 07:05:42 PM 57.4167 -146.5500 287° West 430 495 40,000  Level Anchorage Center
Sun 07:06:42 PM 57.4500 -146.7667 286° West 430 495 40,000  Level Anchorage Center
Sun 07:07:43 PM 57.5000 -146.9833 293° West 430 495 40,000  Level Anchorage Center
Sun 07:08:43 PM 57.5333 -147.2167 285° West 450 518 40,000  Level Anchorage Center
Sun 07:09:43 PM 57.5667 -147.4333 286° West 440 506 40,000  Level Anchorage Center
Sun 07:15:34 PM 57.8047 -148.7547 286° West 451 519 40,000  Level FlightAware
Sun 07:16:30 PM 57.8385 -148.9636 287° West 451 519 40,000  Level FlightAware
Sun 07:17:19 PM 57.8676 -149.1462 287° West 455 524 40,000  Level FlightAware
Sun 07:18:02 PM 57.8880 -149.2745 287° West 456 525 40,000  Level FlightAware
Sun 07:18:34 PM 57.9127 -149.4321 287° West 456 525 40,000  Level FlightAware
Sun 07:19:04 PM 57.9287 -149.5347 286° West 456 525 40,000  Level FlightAware
Sun 07:19:46 PM 57.9551 -149.7056 286° West 456 525 40,000  Level FlightAware
Sun 07:20:17 PM 57.9675 -149.7863 286° West 456 525 40,000  Level FlightAware
Sun 07:20:49 PM 57.9916 -149.9446 286° West 456 525 40,000  Level FlightAware
Sun 07:21:33 PM 58.0165 -150.1136 286° West 456 525 40,000  Level FlightAware
Sun 07:22:18 PM 58.0388 -150.2742 285° West 458 527 40,000  Level FlightAware
Sun 07:22:50 PM 58.0576 -150.4091 285° West 458 527 40,000  Level FlightAware
Sun 07:23:20 PM 58.0738 -150.5264 285° West 459 528 40,000  Level FlightAware
Sun 07:23:50 PM 58.0891 -150.6378 285° West 460 529 40,000  Level FlightAware
Sun 07:24:20 PM 58.1044 -150.7495 285° West 461 531 40,000  Level FlightAware
Sun 07:25:05 PM 58.1289 -150.9304 284° West 462 532 40,000  Level FlightAware
Sun 07:25:35 PM 58.1442 -151.0439 284° West 464 534 40,000  Level FlightAware
Sun 07:26:20 PM 58.1680 -151.2231 284° West 466 536 40,000  Level FlightAware
Sun 07:26:50 PM 58.1831 -151.3383 284° West 467 537 40,000  Level FlightAware
Sun 07:27:34 PM 58.2057 -151.5119 284° West 469 540 40,000  Level FlightAware
Sun 07:28:05 PM 58.2208 -151.6289 284° West 469 540 40,000  Level FlightAware
Sun 07:28:49 PM 58.2453 -151.8214 284° West 471 542 40,000  Level FlightAware
Sun 07:29:20 PM 58.2604 -151.9410 283° West 472 543 40,000  Level FlightAware
Sun 07:30:05 PM 58.2830 -152.1219 283° West 472 543 40,000  Level FlightAware
Sun 07:30:35 PM 58.2973 -152.2378 283° West 472 543 40,000  Level FlightAware
Sun 07:31:20 PM 58.3194 -152.4186 283° West 473 544 40,000  Level FlightAware
Sun 07:31:50 PM 58.3350 -152.5479 283° West 473 544 40,000  Level FlightAware
Sun 07:32:35 PM 58.3560 -152.7237 283° West 475 547 40,000  Level FlightAware
Sun 07:33:05 PM 58.3699 -152.8414 283° West 474 545 40,000  Level FlightAware
Sun 07:33:49 PM 58.3897 -153.0094 283° West 474 545 40,000  Level FlightAware
Sun 07:34:50 PM 58.4163 -153.2404 282° West 474 545 40,000  Level FlightAware
Sun 07:35:34 PM 58.4403 -153.4520 282° West 474 545 40,000  Level FlightAware
Sun 07:36:19 PM 58.4613 -153.6392 282° West 473 544 40,000  Level FlightAware
Sun 07:37:19 PM 58.4838 -153.8439 282° West 475 547 40,000  Level FlightAware
Sun 07:38:20 PM 58.5144 -154.1270 282° West 476 548 40,000  Level FlightAware
Sun 07:39:04 PM 58.5311 -154.2838 282° West 474 545 40,000  Level FlightAware
Sun 07:39:42 PM 58.5497 -154.4615 281° West 473 544 40,000  Level FlightAware
Sun 07:40:20 PM 58.5609 -154.5694 281° West 472 543 40,000  Level FlightAware
Sun 07:40:58 PM 58.5799 -154.7548 281° West 471 542 40,000  Level FlightAware
Sun 07:41:34 PM 58.5977 -154.9318 281° West 471 542 40,000  Level FlightAware
Sun 07:45:27 PM 58.6892 -155.8825 281° West 475 547 40,000  Level FlightAware
Sun 07:46:56 PM 58.7167 -156.2000 281° West 470 541 40,000  Level Anchorage Center
Sun 07:47:57 PM 58.7333 -156.4667 277° West 490 564 40,000  Level Anchorage Center
Sun 07:48:57 PM 58.7500 -156.7167 277° West 480 552 40,000  Level Anchorage Center
Sun 07:49:57 PM 58.7667 -156.9333 279° West 450 518 40,000  Level Anchorage Center
Sun 07:50:57 PM 58.8000 -157.1833 285° West 470 541 40,000  Level Anchorage Center
Sun 07:51:58 PM 58.8167 -157.4500 277° West 470 541 40,000  Level Anchorage Center
Sun 07:52:58 PM 58.8333 -157.7000 277° West 470 541 40,000  Level Anchorage Center
Sun 07:53:58 PM 58.8500 -157.9500 277° West 470 541 40,000  Level Anchorage Center
Sun 07:54:59 PM 58.8833 -158.2500 282° West 470 541 40,000  Level Anchorage Center
Sun 07:55:58 PM 58.8833 -158.4500 270° West 470 541 40,000  Level Anchorage Center
Sun 07:56:59 PM 58.9167 -158.7500 282° West 470 541 40,000  Level Anchorage Center
Sun 07:57:59 PM 58.9333 -159.0000 277° West 470 541 40,000  Level Anchorage Center
Sun 07:59:00 PM 58.9500 -159.2500 277° West 470 541 40,000  Level Anchorage Center
Sun 08:00:00 PM 58.9667 -159.5000 277° West 460 529 40,000  Level Anchorage Center
Sun 08:01:01 PM 58.9833 -159.7333 278° West 460 529 40,000  Level Anchorage Center
Sun 08:02:01 PM 59.0000 -159.9833 277° West 470 541 40,000  Level Anchorage Center
Sun 08:03:01 PM 58.9833 -160.2333 263° West 460 529 40,000  Level Anchorage Center
Sun 08:04:02 PM 58.9667 -160.4833 263° West 470 541 40,000  Level Anchorage Center
Sun 08:05:02 PM 58.9500 -160.7333 263° West 470 541 40,000  Level Anchorage Center
Sun 08:06:02 PM 58.9333 -161.0000 263° West 470 541 40,000  Level Anchorage Center
Sun 08:07:03 PM 58.9167 -161.2667 263° West 460 529 40,000  Level Anchorage Center
Sun 08:08:03 PM 58.9000 -161.5000 262° West 470 541 40,000  Level Anchorage Center
Sun 08:09:03 PM 58.8833 -161.7667 263° West 470 541 40,000  Level Anchorage Center
Sun 08:10:04 PM 58.8500 -162.0333 257° West 470 541 40,000  Level Anchorage Center
Sun 08:11:04 PM 58.8333 -162.2833 263° West 470 541 40,000  Level Anchorage Center
Sun 08:12:04 PM 58.8167 -162.4833 261° West 470 541 40,000  Level Anchorage Center
Sun 08:13:05 PM 58.8000 -162.7833 264° West 470 541 40,000  Level Anchorage Center
Sun 08:14:05 PM 58.7833 -163.0333 263° West 480 552 40,000  Level Anchorage Center
Sun 08:15:06 PM 58.7500 -163.2833 256° West 460 529 40,000  Level Anchorage Center
Sun 08:16:06 PM 58.7333 -163.5500 263° West 480 552 40,000  Level Anchorage Center
Sun 08:17:06 PM 58.7167 -163.8000 263° West 480 552 40,000  Level Anchorage Center
Sun 08:18:07 PM 58.6833 -164.0500 256° West 480 552 40,000  Level Anchorage Center
Sun 08:19:07 PM 58.6667 -164.3000 263° West 470 541 40,000  Level Anchorage Center
Sun 08:20:07 PM 58.6333 -164.5500 256° West 480 552 40,000  Level Anchorage Center
Sun 08:21:05 PM 58.6167 -164.8000 263° West 470 541 40,000  Level Anchorage Center
Sun 08:21:08 PM 58.6167 -164.8000 263° West 480 552 40,000  Level Anchorage Center
Sun 08:22:05 PM 58.5833 -165.0667 257° West 480 552 40,000  Level Anchorage Center
Sun 08:23:05 PM 58.5667 -165.3167 263° West 480 552 40,000  Level Anchorage Center
Sun 08:24:05 PM 58.5333 -165.5667 256° West 480 552 40,000  Level Anchorage Center
Sun 08:25:05 PM 58.5167 -165.8167 263° West 470 541 40,000  Level Anchorage Center
Sun 08:26:06 PM 58.4833 -166.0667 256° West 470 541 40,000  Level Anchorage Center
Sun 08:27:05 PM 58.4667 -166.3167 263° West 470 541 40,000  Level Anchorage Center
Sun 08:28:05 PM 58.4333 -166.5667 256° West 480 552 40,000  Level Anchorage Center
Sun 08:29:06 PM 58.4000 -166.8000 255° West 460 529 40,000  Level Anchorage Center
Sun 08:30:05 PM 58.3667 -167.0333 255° West 460 529 40,000  Level Anchorage Center
Sun 08:31:06 PM 58.3500 -167.2833 263° West 460 529 40,000  Level Anchorage Center
Sun 08:32:06 PM 58.3167 -167.5333 256° West 470 541 40,000  Level Anchorage Center
Sun 08:33:06 PM 58.2833 -167.7667 255° West 460 529 40,000  Level Anchorage Center
Sun 08:34:06 PM 58.2667 -168.0167 263° West 470 541 40,000  Level Anchorage Center
Sun 08:35:06 PM 58.2333 -168.2500 255° West 460 529 40,000  Level Anchorage Center
Sun 08:36:06 PM 58.2000 -168.5000 256° West 470 541 40,000  Level Anchorage Center
Sun 08:37:06 PM 58.1667 -168.7500 256° West 470 541 40,000  Level Anchorage Center
Sun 08:38:06 PM 58.1333 -168.9833 255° West 470 541 40,000  Level Anchorage Center
Sun 08:39:06 PM 58.1000 -169.2333 256° West 470 541 40,000  Level Anchorage Center
Sun 08:40:06 PM 58.0667 -169.4667 255° West 470 541 40,000  Level Anchorage Center
Sun 08:41:06 PM 58.0333 -169.7167 256° West 480 552 40,000  Level Anchorage Center
Sun 08:42:06 PM 58.0000 -169.9500 255° West 470 541 40,000  Level Anchorage Center
Sun 08:43:06 PM 57.9667 -170.2000 256° West 470 541 40,000  Level Anchorage Center
Sun 08:44:07 PM 57.9333 -170.4333 255° West 470 541 40,000  Level Anchorage Center
Sun 08:45:07 PM 57.8833 -170.6667 248° West 470 541 40,000  Level Anchorage Center
Sun 08:46:07 PM 57.8500 -170.9000 255° West 470 541 40,000  Level Anchorage Center
Sun 08:47:07 PM 57.8167 -171.1333 255° West 470 541 40,000  Level Anchorage Center
Sun 08:48:07 PM 57.7833 -171.3667 255° West 470 541 40,000  Level Anchorage Center
Sun 08:49:07 PM 57.7333 -171.6000 248° West 460 529 40,000  Level Anchorage Center
Sun 08:50:07 PM 57.7000 -171.8500 256° West 470 541 40,000  Level Anchorage Center
Sun 08:51:07 PM 57.6500 -172.0833 248° West 480 552 40,000  Level Anchorage Center
Sun 08:52:07 PM 57.6167 -172.3167 255° West 470 541 40,000  Level Anchorage Center
Sun 08:53:07 PM 57.5667 -172.5500 248° West 470 541 40,000  Level Anchorage Center
Sun 08:54:07 PM 57.5333 -172.7833 255° West 460 529 40,000  Level Anchorage Center
Sun 08:55:08 PM 57.5000 -173.0167 255° West 460 529 40,000  Level Anchorage Center
Sun 08:56:07 PM 57.4500 -173.2500 248° West 470 541 40,000  Level Anchorage Center
Sun 08:57:07 PM 57.4000 -173.4833 248° West 470 541 40,000  Level Anchorage Center
Sun 08:58:08 PM 57.3667 -173.7167 255° West 480 552 40,000  Level Anchorage Center
Sun 08:59:09 PM 57.3167 -173.9500 248° West 480 552 40,000  Level Anchorage Center
Sun 09:00:08 PM 57.2833 -174.1833 255° West 480 552 40,000  Level Anchorage Center
Sun 09:01:08 PM 57.2333 -174.4167 248° West 480 552 40,000  Level Anchorage Center
Sun 09:02:08 PM 57.1833 -174.6500 249° West 490 564 40,000  Level Anchorage Center
Sun 09:03:08 PM 57.1333 -174.8833 249° West 470 541 40,000  Level Anchorage Center
Sun 09:04:08 PM 57.1000 -175.1167 255° West 470 541 40,000  Level Anchorage Center
Sun 09:05:08 PM 57.0500 -175.3500 249° West 480 552 40,000  Level Anchorage Center
Sun 09:13:48 PM 56.7000 -177.0500 248° West 468 539 40,000  Level Anchorage Center
Sun 09:22:24 PM 56.2167 -179.1167 247° West 471 542 40,000  Level Anchorage Center
Sun 09:26:32 PM 56.0000 180.0000 250° West 475 547 40,000  Level Anchorage Center
Sun 09:31:54 PM 55.7500 178.7833 249° West 476 548 40,000  Level Anchorage Center
Sun 09:39:45 PM 55.3500 177.1000 246° West 460 529 40,000  Level Anchorage Center
Sun 09:40:00 PM 55.3532 177.0537 247° West 476 548 40,000  Level FlightAware
Sun 09:40:46 PM 55.3000 176.9000 246° West 470 541 40,000  Level Anchorage Center
Sun 09:41:00 PM 55.3019 176.8400 247° West 476 548 40,000  Level FlightAware
Sun 09:41:45 PM 55.2500 176.6667 249° West 470 541 40,000  Level Anchorage Center
Sun 09:42:00 PM 55.2502 176.6268 247° West 476 548 40,000  Level FlightAware
Sun 09:42:45 PM 55.2000 176.4833 245° Southwest 470 541 40,000  Level Anchorage Center
Sun 09:43:00 PM 55.1982 176.4142 247° West 476 548 40,000  Level FlightAware
Sun 09:43:46 PM 55.1500 176.2667 248° West 460 529 40,000  Level Anchorage Center
Sun 09:44:00 PM 55.1458 176.2021 247° West 476 548 40,000  Level FlightAware
Sun 09:44:46 PM 55.1000 176.0833 245° Southwest 460 529 40,000  Level Anchorage Center
Sun 09:45:00 PM 55.0930 175.9906 246° West 476 548 40,000  Level FlightAware
Sun 09:46:46 PM 55.0000 175.6333 249° West 450 518 40,000  Level Anchorage Center
Sun 09:47:46 PM 54.9500 175.4667 242° Southwest 450 518 40,000  Level Anchorage Center
Sun 09:48:46 PM 54.9000 175.2333 250° West 460 529 40,000  Level Anchorage Center
Sun 09:49:46 PM 54.8500 175.0667 243° Southwest 460 529 40,000  Level Anchorage Center
Sun 09:50:46 PM 54.7833 174.8500 242° Southwest 460 529 40,000  Level Anchorage Center
Sun 09:51:46 PM 54.7500 174.6667 253° West 460 529 40,000  Level Anchorage Center
Sun 09:52:46 PM 54.6833 174.4500 242° Southwest 460 529 40,000  Level Anchorage Center
Sun 09:53:46 PM 54.6333 174.2333 248° West 470 541 40,000  Level Anchorage Center
Sun 09:54:46 PM 54.5833 174.0500 245° Southwest 470 541 40,000  Level Anchorage Center
Sun 09:55:47 PM 54.5167 173.8333 242° Southwest 470 541 40,000  Level Anchorage Center
Sun 09:56:47 PM 54.4667 173.6500 245° Southwest 460 529 40,000  Level Anchorage Center
Sun 09:57:47 PM 54.4167 173.4333 248° West 470 541 40,000  Level Anchorage Center
Sun 09:59:47 PM 54.3000 173.0333 244° Southwest 480 552 40,000  Level Anchorage Center
Sun 10:00:47 PM 54.2333 172.8000 244° Southwest 490 564 40,000  Level Anchorage Center
Sun 10:01:47 PM 54.1833 172.6333 243° Southwest 460 529 40,000  Level Anchorage Center
Sun 10:03:47 PM 54.0333 172.2667 235° Southwest 490 564 40,000  Level Anchorage Center
Sun 10:05:47 PM 53.8833 171.9000 235° Southwest 480 552 40,000  Level Anchorage Center
Sun 10:06:48 PM 53.7833 171.7000 230° Southwest 490 564 40,000  Level Anchorage Center
Sun 10:07:47 PM 53.7167 171.5500 233° Southwest 480 552 40,000  Level Anchorage Center
Sun 10:08:47 PM 53.6333 171.3500 235° Southwest 480 552 40,000  Level Anchorage Center
Sun 10:10:19 PM 53.5167 171.0667 234° Southwest 471 542 40,000  Level Anchorage Center
Sun 10:17:02 PM 53.0000 169.9000 241° Southwest 474 545 40,000  Level Anchorage Center
Sun 10:19:55 PM 52.8167 169.3333 241° Southwest 465 535 40,000  Level Anchorage Center
Sun 10:29:32 PM 52.1833 167.5500 239° Southwest 460 529 40,000  Level Anchorage Center
Sun 10:39:21 PM 51.5500 165.8667 238° Southwest 454 522 40,000  Level Anchorage Center
Sun 10:41:00 PM 51.4333 165.5500 237° Southwest 457 526 40,000  Level Anchorage Center
Sun 10:47:59 PM 50.9500 164.3833 237° Southwest 456 525 40,000  Level Anchorage Center
Sun 10:48:47 PM 50.9000 164.2333 237° Southwest 455 524 40,000  Level Anchorage Center
Sun 10:58:23 PM 50.2167 162.6333 235° Southwest 465 535 40,000  Level Anchorage Center
Sun 11:07:59 PM 49.5000 161.0667 232° Southwest 447 514 40,000  Level Anchorage Center
Sun 11:08:00 PM 49.4833 161.0333 234° Southwest 465 535 40,000  Level FlightAware
Sun 11:08:28 PM 49.4833 161.0333 234° Southwest 457 526 40,000  Level Anchorage Center
Sun 11:09:00 PM 49.4148 160.8869 234° Southwest 465 535 40,000  Level FlightAware
Sun 11:10:00 PM 49.3461 160.7408 234° Southwest 465 535 40,000  Level FlightAware
Sun 11:11:00 PM 49.2773 160.5952 234° Southwest 465 535 40,000  Level FlightAware
Sun 11:12:00 PM 49.2082 160.4500 234° Southwest 465 535 40,000  Level FlightAware
Sun 11:13:00 PM 49.1390 160.3051 234° Southwest 465 535 40,000  Level FlightAware
Sun 11:14:00 PM 49.0696 160.1607 234° Southwest 457 526 40,000  Level FlightAware
Sun 11:15:00 PM 49.0000 160.0167 233° Southwest 457 526 40,000  Level FlightAware
Sun 11:16:00 PM 48.9342 159.8824 233° Southwest 457 526 40,000  Level FlightAware
Sun 11:17:00 PM 48.8682 159.7484 233° Southwest 457 526 40,000  Level FlightAware
Sun 11:18:00 PM 48.8021 159.6149 233° Southwest 457 526 40,000  Level FlightAware
Sun 11:19:00 PM 48.7358 159.4816 233° Southwest 457 526 40,000  Level FlightAware
Sun 11:20:00 PM 48.6694 159.3487 233° Southwest 457 526 40,000  Level FlightAware
Sun 11:21:00 PM 48.6028 159.2162 233° Southwest 457 526 40,000  Level FlightAware
Sun 11:22:00 PM 48.5361 159.0840 233° Southwest 457 526 40,000  Level FlightAware
Sun 11:23:00 PM 48.4692 158.9522 233° Southwest 457 526 40,000  Level FlightAware
Sun 11:24:00 PM 48.4022 158.8207 232° Southwest 457 526 40,000  Level FlightAware
Sun 11:25:00 PM 48.3350 158.6896 232° Southwest 457 526 40,000  Level FlightAware
Sun 11:26:00 PM 48.2677 158.5588 232° Southwest 457 526 40,000  Level FlightAware
Sun 11:27:00 PM 48.2002 158.4283 232° Southwest 457 526 40,000  Level FlightAware
Sun 11:28:00 PM 48.1325 158.2982 232° Southwest 457 526 40,000  Level FlightAware
Sun 11:29:00 PM 48.0648 158.1685 232° Southwest 457 526 40,000  Level FlightAware
Sun 11:30:00 PM 47.9968 158.0390 232° Southwest 457 526 40,000  Level FlightAware
Sun 11:31:00 PM 47.9288 157.9099 232° Southwest 457 526 40,000  Level FlightAware
Sun 11:32:00 PM 47.8606 157.7812 232° Southwest 457 526 40,000  Level FlightAware
Sun 11:33:00 PM 47.7922 157.6528 232° Southwest 457 526 40,000  Level FlightAware
Sun 11:34:00 PM 47.7237 157.5247 231° Southwest 457 526 40,000  Level FlightAware
Sun 11:35:00 PM 47.6551 157.3970 231° Southwest 457 526 40,000  Level FlightAware
Sun 11:36:00 PM 47.5863 157.2696 231° Southwest 457 526 40,000  Level FlightAware
Sun 11:37:00 PM 47.5174 157.1426 231° Southwest 457 526 40,000  Level FlightAware
Sun 11:38:00 PM 47.4483 157.0158 231° Southwest 457 526 40,000  Level FlightAware
Sun 11:39:00 PM 47.3791 156.8894 231° Southwest 457 526 40,000  Level FlightAware
Sun 11:40:00 PM 47.3098 156.7634 231° Southwest 457 526 40,000  Level FlightAware
Sun 11:41:00 PM 47.2403 156.6376 231° Southwest 457 526 40,000  Level FlightAware
Sun 11:42:00 PM 47.1707 156.5123 231° Southwest 457 526 40,000  Level FlightAware
Sun 11:43:00 PM 47.1010 156.3872 231° Southwest 457 526 40,000  Level FlightAware
Sun 11:44:00 PM 47.0311 156.2624 231° Southwest 457 526 40,000  Level FlightAware
Sun 11:45:00 PM 46.9611 156.1380 230° Southwest 457 526 40,000  Level FlightAware
Sun 11:46:00 PM 46.8909 156.0139 230° Southwest 457 526 40,000  Level FlightAware
Sun 11:47:00 PM 46.8206 155.8902 230° Southwest 457 526 40,000  Level FlightAware
Sun 11:48:00 PM 46.7502 155.7667 230° Southwest 457 526 40,000  Level FlightAware
Sun 11:49:00 PM 46.6796 155.6436 230° Southwest 457 526 40,000  Level FlightAware
Sun 11:50:00 PM 46.6090 155.5208 230° Southwest 457 526 40,000  Level FlightAware
Sun 11:51:00 PM 46.5382 155.3983 230° Southwest 457 526 40,000  Level FlightAware
Sun 11:52:00 PM 46.4672 155.2762 230° Southwest 457 526 40,000  Level FlightAware
Sun 11:53:00 PM 46.3961 155.1543 230° Southwest 457 526 40,000  Level FlightAware
Sun 11:54:00 PM 46.3249 155.0328 230° Southwest 457 526 40,000  Level FlightAware
Sun 11:55:00 PM 46.2536 154.9116 230° Southwest 457 526 40,000  Level FlightAware
Sun 11:56:00 PM 46.1821 154.7907 229° Southwest 457 526 40,000  Level FlightAware
Sun 11:57:00 PM 46.1105 154.6701 229° Southwest 457 526 40,000  Level FlightAware
Sun 11:58:00 PM 46.0388 154.5499 229° Southwest 457 526 40,000  Level FlightAware
Sun 11:59:00 PM 45.9670 154.4299 229° Southwest 457 526 40,000  Level FlightAware
Mon 12:00:00 AM 45.8950 154.3103 229° Southwest 457 526 40,000  Level FlightAware
Mon 12:01:00 AM 45.8229 154.1909 229° Southwest 457 526 40,000  Level FlightAware
Mon 12:02:00 AM 45.7507 154.0719 229° Southwest 457 526 40,000  Level FlightAware
Mon 12:03:00 AM 45.6784 153.9532 229° Southwest 457 526 40,000  Level FlightAware
Mon 12:04:00 AM 45.6059 153.8348 229° Southwest 457 526 40,000  Level FlightAware
Mon 12:05:00 AM 45.5173 153.7175 223° Southwest  Level FlightAware
Mon 12:06:00 AM 45.5097 153.7054 228° Southwest  Level FlightAware
Mon 12:07:00 AM 45.4294 153.5768 228° Southwest  Level FlightAware
Mon 12:08:00 AM 45.3489 153.4485 228° Southwest  Level FlightAware
Mon 12:09:00 AM 45.2683 153.3205 228° Southwest  Level FlightAware
Mon 12:10:00 AM 45.1876 153.1929 228° Southwest  Level FlightAware
Mon 12:11:00 AM 45.1067 153.0657 228° Southwest  Level FlightAware
Mon 12:12:00 AM 45.0257 152.9389 228° Southwest  Level FlightAware
Mon 12:13:00 AM 44.9446 152.8124 228° Southwest  Level FlightAware
Mon 12:14:00 AM 44.8632 152.6861 228° Southwest  Level FlightAware
Mon 12:15:00 AM 44.7816 152.5601 228° Southwest  Level FlightAware
Mon 12:16:00 AM 44.6999 152.4345 228° Southwest  Level FlightAware
Mon 12:17:00 AM 44.6181 152.3093 227° Southwest  Level FlightAware
Mon 12:18:00 AM 44.5361 152.1844 227° Southwest  Level FlightAware
Mon 12:19:00 AM 44.4540 152.0598 227° Southwest  Level FlightAware
Mon 12:20:00 AM 44.3718 151.9357 227° Southwest  Level FlightAware
Mon 12:21:00 AM 44.2895 151.8118 227° Southwest  Level FlightAware
Mon 12:22:00 AM 44.2070 151.6883 227° Southwest  Level FlightAware
Mon 12:23:00 AM 44.1243 151.5652 227° Southwest  Level FlightAware
Mon 12:24:00 AM 44.0416 151.4424 227° Southwest  Level FlightAware
Mon 12:25:00 AM 43.9587 151.3199 227° Southwest  Level FlightAware
Mon 12:26:00 AM 43.8756 151.1978 227° Southwest  Level FlightAware
Mon 12:27:00 AM 43.7925 151.0760 227° Southwest  Level FlightAware
Mon 12:28:00 AM 43.7092 150.9545 227° Southwest  Level FlightAware
Mon 12:29:00 AM 43.6258 150.8334 226° Southwest  Level FlightAware
Mon 12:30:00 AM 43.5423 150.7127 226° Southwest  Level FlightAware
Mon 12:31:00 AM 43.4586 150.5922 226° Southwest  Level FlightAware
Mon 12:32:00 AM 43.3748 150.4721 226° Southwest  Level FlightAware
Mon 12:33:00 AM 43.2909 150.3524 226° Southwest  Level FlightAware
Mon 12:34:00 AM 43.2069 150.2329 226° Southwest  Level FlightAware
Mon 12:35:00 AM 43.1227 150.1138 226° Southwest  Level FlightAware
Mon 12:36:00 AM 43.0384 149.9950 226° Southwest  Level FlightAware
Mon 12:37:00 AM 42.9540 149.8766 226° Southwest  Level FlightAware
Mon 12:38:00 AM 42.8695 149.7584 226° Southwest  Level FlightAware
Mon 12:39:00 AM 42.7848 149.6406 226° Southwest  Level FlightAware
Mon 12:40:00 AM 42.7001 149.5231 226° Southwest  Level FlightAware
Mon 12:41:00 AM 42.6152 149.4060 225° Southwest  Level FlightAware
Mon 12:42:00 AM 42.5302 149.2891 225° Southwest  Level FlightAware
Mon 12:43:00 AM 42.4450 149.1726 225° Southwest  Level FlightAware
Mon 12:44:00 AM 42.3598 149.0564 225° Southwest  Level FlightAware
Mon 12:45:00 AM 42.2744 148.9405 225° Southwest  Level FlightAware
Mon 12:46:00 AM 42.1889 148.8249 225° Southwest  Level FlightAware
Mon 12:47:00 AM 42.1033 148.7096 225° Southwest  Level FlightAware
Mon 12:48:00 AM 42.0176 148.5947 225° Southwest  Level FlightAware
Mon 12:49:00 AM 41.9318 148.4800 225° Southwest  Level FlightAware
Mon 12:50:00 AM 41.8458 148.3657 225° Southwest  Level FlightAware
Mon 12:51:00 AM 41.7598 148.2516 225° Southwest  Level FlightAware
Mon 12:52:00 AM 41.6732 148.1390 224° Southwest  Level FlightAware
Mon 12:53:00 AM 41.5864 148.0270 224° Southwest  Level FlightAware
Mon 12:54:00 AM 41.4994 147.9153 224° Southwest  Level FlightAware
Mon 12:55:00 AM 41.4123 147.8040 224° Southwest  Level FlightAware
Mon 12:56:00 AM 41.3251 147.6929 224° Southwest  Level FlightAware
Mon 12:57:00 AM 41.2379 147.5822 224° Southwest  Level FlightAware
Mon 12:58:00 AM 41.1505 147.4717 224° Southwest  Level FlightAware
Mon 12:59:00 AM 41.0629 147.3615 224° Southwest  Level FlightAware
Mon 01:00:00 AM 40.9753 147.2516 223° Southwest  Level FlightAware
Mon 01:01:00 AM 40.8876 147.1421 223° Southwest  Level FlightAware
Mon 01:02:00 AM 40.7998 147.0328 223° Southwest  Level FlightAware
Mon 01:03:00 AM 40.7119 146.9238 223° Southwest  Level FlightAware
Mon 01:04:00 AM 40.6239 146.8150 223° Southwest  Level FlightAware
Mon 01:05:00 AM 40.5357 146.7066 223° Southwest  Level FlightAware
Mon 01:06:00 AM 40.4475 146.5984 223° Southwest  Level FlightAware
Mon 01:07:00 AM 40.3592 146.4906 223° Southwest  Level FlightAware
Mon 01:08:00 AM 40.2707 146.3830 223° Southwest  Level FlightAware
Mon 01:09:00 AM 40.1822 146.2757 223° Southwest  Level FlightAware
Mon 01:10:00 AM 40.0936 146.1687 223° Southwest  Level FlightAware
Mon 01:11:00 AM 40.0049 146.0619 223° Southwest  Level FlightAware
Mon 01:12:00 AM 39.9161 145.9554 223° Southwest  Level FlightAware
Mon 01:13:00 AM 39.8271 145.8493 223° Southwest  Level FlightAware
Mon 01:14:00 AM 39.7381 145.7433 222° Southwest  Level FlightAware
Mon 01:15:00 AM 39.6490 145.6377 222° Southwest  Level FlightAware
Mon 01:16:00 AM 39.5598 145.5323 222° Southwest  Level FlightAware
Mon 01:17:00 AM 39.4705 145.4272 222° Southwest  Level FlightAware
Mon 01:18:00 AM 39.3811 145.3224 222° Southwest  Level FlightAware
Mon 01:19:00 AM 39.2916 145.2178 222° Southwest  Level FlightAware
Mon 01:20:00 AM 39.2020 145.1135 222° Southwest  Level FlightAware
Mon 01:21:00 AM 39.1124 145.0095 222° Southwest  Level FlightAware
Mon 01:22:00 AM 39.0226 144.9057 222° Southwest  Level FlightAware
Mon 01:23:00 AM 38.9328 144.8022 222° Southwest  Level FlightAware
Mon 01:24:00 AM 38.8428 144.6990 222° Southwest  Level FlightAware
Mon 01:25:00 AM 38.7527 144.5962 222° Southwest  Level FlightAware
Mon 01:26:00 AM 38.6623 144.4937 222° Southwest  Level FlightAware
Mon 01:27:00 AM 38.5719 144.3915 221° Southwest  Level FlightAware
Mon 01:28:00 AM 38.4814 144.2896 221° Southwest  Level FlightAware
Mon 01:29:00 AM 38.3908 144.1879 221° Southwest  Level FlightAware
Mon 01:30:00 AM 38.3002 144.0865 221° Southwest  Level FlightAware
Mon 01:31:00 AM 38.2094 143.9854 221° Southwest  Level FlightAware
Mon 01:32:00 AM 38.1185 143.8844 221° Southwest  Level FlightAware
Mon 01:33:00 AM 38.0276 143.7838 221° Southwest  Level FlightAware
Mon 01:34:00 AM 37.9366 143.6834 221° Southwest  Level FlightAware
Mon 01:35:00 AM 37.8455 143.5832 221° Southwest  Level FlightAware
Mon 01:36:00 AM 37.7490 143.4923 212° Southwest  Level FlightAware
Mon 01:37:00 AM 37.6472 143.4106 212° Southwest  Level FlightAware
Mon 01:38:00 AM 37.5453 143.3291 212° Southwest  Level FlightAware
Mon 01:39:00 AM 37.4433 143.2479 212° Southwest  Level FlightAware
Mon 01:40:00 AM 37.3413 143.1669 212° Southwest  Level FlightAware
Mon 01:41:00 AM 37.2393 143.0861 212° Southwest  Level FlightAware
Mon 01:42:00 AM 37.1371 143.0055 212° Southwest  Level FlightAware
Mon 01:43:00 AM 37.0352 142.9247 213° Southwest  Level FlightAware
Mon 01:44:00 AM 36.9336 142.8432 213° Southwest  Level FlightAware
Mon 01:45:00 AM 36.8320 142.7620 213° Southwest  Level FlightAware
Mon 01:46:00 AM 36.7308 142.6813 212° Southwest  Level FlightAware
Mon 01:47:00 AM 36.6286 142.6026 212° Southwest  Level FlightAware
Mon 01:48:00 AM 36.5264 142.5241 212° Southwest  Level FlightAware
Mon 01:49:00 AM 36.4207 142.4541 219° Southwest  Level FlightAware
Mon 01:50:00 AM 36.3193 142.3746 210° Southwest  Level FlightAware
Mon 01:51:00 AM 36.2157 142.2993 210° Southwest  Level FlightAware
Mon 01:52:00 AM 36.1122 142.2239 210° Southwest  Level FlightAware
Mon 01:53:00 AM 36.0284 142.1317 260° West  Level FlightAware
Mon 01:54:00 AM 36.0002 141.9873 252° West  Level FlightAware
Mon 01:55:00 AM 35.9630 141.8457 252° West  Level FlightAware
Mon 01:56:00 AM 35.9260 141.7041 253° West  Level FlightAware
Mon 01:57:00 AM 35.8974 141.5604 265° West  Level FlightAware
Mon 01:58:00 AM 35.8875 141.4122 265° West  Level FlightAware
Mon 01:59:00 AM 35.8693 141.2655 258° West  Level FlightAware
Mon 02:00:00 AM 35.8462 141.1197 261° West  Level FlightAware
Mon 02:01:00 AM 35.8279 140.9729 261° West  Level FlightAware
Mon 02:02:00 AM 35.8158 140.8255 262° West  Level FlightAware
Mon 02:03:00 AM 35.7992 140.6784 258° West  Level FlightAware
Mon 02:04:00 AM 35.7749 140.5329 258° West  Level FlightAware
Mon 02:05:00 AM 35.7513 140.3884 253° West  Level FlightAware
Mon 02:06:00 AM 35.7500 140.3833 253° West  Level FlightAware
Mon 02:07:00 AM 35.7647 140.3864 253° West  Level Estimated
Mon 02:08:00 AM 35.7647 140.3864 253° West  Level Estimated
Mon 02:09:00 AM 35.7647 140.3864 253° West  Level Estimated
Mon 02:10:00 AM 35.7647 140.3864 253° West  Level Estimated
Mon 02:11:00 AM 35.7647 140.3864 253° West  Level Estimated
Mon 02:12:00 AM 35.7647 140.3864 253° West  Level Estimated
Mon 02:13:00 AM 35.7647 140.3864 253° West  Level Estimated
Mon 02:14:00 AM 35.7647 140.3864 253° West  Level Estimated
Mon 02:15:00 AM 35.7647 140.3864 253° West  Level Estimated
Mon 02:16:00 AM 35.7647 140.3864 253° West  Level Estimated
Mon 02:17:00 AM 35.7647 140.3864 253° West  Level Estimated
Mon 02:18:00 AM 35.7647 140.3864 253° West  Level Estimated
Mon 02:19:00 AM 35.7647 140.3864 253° West  Level Estimated
Mon 02:20:00 AM 35.7647 140.3864 253° West  Level Estimated
Mon 02:21:00 AM 35.7647 140.3864 253° West  Level Estimated
Mon 02:22:00 AM 35.7647 140.3864 253° West  Level Estimated
Mon 02:23:00 AM 35.7647 140.3864 253° West  Level Estimated
Mon 02:24:00 AM 35.7647 140.3864 253° West  Level Estimated
Mon 02:25:00 AM 35.7647 140.3864 253° West  Level Estimated
Mon 02:26:00 AM 35.7647 140.3864 253° West  Level Estimated
Mon 02:27:00 AM 35.7647 140.3864 253° West  Level Estimated
Mon 02:28:00 AM 35.7647 140.3864 253° West  Level Estimated
Mon 02:29:00 AM 35.7647 140.3864 253° West  Level Estimated
Mon 02:30:00 AM 35.7647 140.3864 253° West  Level Estimated
Mon 02:31:00 AM 35.7647 140.3864 253° West  Level Estimated
Mon 02:32:00 AM 35.7647 140.3864 253° West  Level Estimated
Mon 02:33:00 AM 35.7647 140.3864 253° West  Level Estimated

Login

Don't have an account? Register now (free) for customized features, flight alerts, and more!